createdAt,value
2018-12-06T00:01:04.837Z,26.36
2018-12-06T00:06:59.868Z,25.57
2018-12-06T00:12:54.816Z,24.95
2018-12-06T00:18:49.815Z,25.61
2018-12-06T00:24:44.824Z,26.86
2018-12-06T00:30:39.836Z,29.44
2018-12-06T00:36:34.836Z,30.27
2018-12-06T00:42:29.875Z,25.43
2018-12-06T00:48:24.865Z,28.95
2018-12-06T00:54:19.884Z,27.7
2018-12-06T01:00:14.854Z,26.71
2018-12-06T01:06:09.864Z,26.19
2018-12-06T01:12:04.917Z,26.71
2018-12-06T01:17:59.871Z,26.9
2018-12-06T01:23:54.858Z,26.78
2018-12-06T01:29:49.880Z,26.79
2018-12-06T01:35:44.849Z,27.82
2018-12-06T01:41:39.861Z,26.95
2018-12-06T01:47:34.859Z,27.53
2018-12-06T01:53:29.875Z,26.98
2018-12-06T01:59:24.903Z,25.25
2018-12-06T02:05:19.919Z,24.17
2018-12-06T02:11:14.931Z,22.94
2018-12-06T02:17:09.872Z,22.72
2018-12-06T02:23:04.934Z,20.95
2018-12-06T02:28:59.891Z,21.56
2018-12-06T02:34:54.891Z,22.22
2018-12-06T02:40:49.909Z,23.8
2018-12-06T02:46:44.910Z,23.5
2018-12-06T02:52:39.915Z,24.08
2018-12-06T02:58:34.923Z,23.73
2018-12-06T03:04:29.915Z,24.27
2018-12-06T03:10:24.912Z,23.62
2018-12-06T03:16:19.910Z,24.48
2018-12-06T03:22:14.912Z,24.29
2018-12-06T03:28:09.919Z,26.1
2018-12-06T03:34:04.917Z,27.56
2018-12-06T03:39:59.929Z,27.6
2018-12-06T03:45:54.943Z,27.94
2018-12-06T03:51:49.956Z,29.19
2018-12-06T03:57:44.951Z,29.08
2018-12-06T04:03:39.967Z,28.56
2018-12-06T04:09:34.931Z,28.48
2018-12-06T04:15:29.951Z,27.5
2018-12-06T04:21:25.004Z,27.37
2018-12-06T04:27:19.955Z,25.06
2018-12-06T04:33:14.962Z,17.34
2018-12-06T04:39:09.966Z,19.62
2018-12-06T04:45:04.957Z,21.41
2018-12-06T04:50:59.973Z,20.86
2018-12-06T04:56:54.969Z,20.93
2018-12-06T05:02:49.975Z,23.54
2018-12-06T05:08:44.975Z,23.04
2018-12-06T05:14:39.989Z,23.13
2018-12-06T05:20:35.015Z,23.47
2018-12-06T05:26:29.972Z,25.93
2018-12-06T05:32:24.986Z,25.73
2018-12-06T05:38:20.022Z,26.84
2018-12-06T05:44:15.017Z,27.7
2018-12-06T05:50:09.985Z,27.17
2018-12-06T05:56:05.039Z,27.26
2018-12-06T06:02:00.012Z,28.1
2018-12-06T06:07:55.019Z,28.16
2018-12-06T06:13:50.012Z,26.81
2018-12-06T06:19:45.030Z,26.82
2018-12-06T06:25:40.007Z,25.28
2018-12-06T06:31:35.027Z,30.75
2018-12-06T06:37:30.007Z,31.13
2018-12-06T06:43:25.007Z,24.67
2018-12-06T06:49:20.056Z,19.39
2018-12-06T06:55:15.060Z,17.22
2018-12-06T07:01:10.064Z,20.9
2018-12-06T07:07:05.045Z,25.51
2018-12-06T07:13:00.035Z,24.03
2018-12-06T07:18:55.055Z,25.9
2018-12-06T07:24:50.036Z,26.82
2018-12-06T07:30:45.040Z,26.01
2018-12-06T07:36:40.041Z,27.4
2018-12-06T07:42:35.087Z,23.55
2018-12-06T07:48:30.073Z,22.37
2018-12-06T07:54:25.065Z,20.51
2018-12-06T08:00:20.066Z,21.13
2018-12-06T08:06:15.097Z,20.58
2018-12-06T08:12:10.046Z,22.51
2018-12-06T08:18:05.062Z,19.91
2018-12-06T08:24:00.055Z,21.15
2018-12-06T08:29:55.060Z,21.35
2018-12-06T08:35:50.082Z,21.75
2018-12-06T08:41:45.107Z,21.93
2018-12-06T08:47:40.145Z,22.3
2018-12-06T08:53:35.089Z,22.57
2018-12-06T08:59:30.096Z,20.37
2018-12-06T09:05:25.094Z,24.58
2018-12-06T09:11:20.136Z,30.64
2018-12-06T09:17:15.106Z,28.23
2018-12-06T09:23:10.089Z,27.15
2018-12-06T09:29:05.107Z,22.02
2018-12-06T09:35:00.111Z,27.24
2018-12-06T09:40:55.109Z,27.02
2018-12-06T09:46:50.149Z,23.14
2018-12-06T09:52:45.138Z,21.72
2018-12-06T09:58:40.118Z,20.46
2018-12-06T10:04:35.137Z,24.71
2018-12-06T10:10:30.163Z,21.21
2018-12-06T10:16:25.130Z,17.38
2018-12-06T10:22:20.169Z,20.37
2018-12-06T10:28:15.169Z,22.51
2018-12-06T10:34:10.139Z,21.96
2018-12-06T10:40:05.140Z,23.37
2018-12-06T10:46:00.156Z,21.75
2018-12-06T10:51:55.141Z,28.97
2018-12-06T10:57:50.151Z,29.04
2018-12-06T11:03:45.240Z,24.69
2018-12-06T11:09:40.150Z,23.63
2018-12-06T11:15:35.180Z,27.89
2018-12-06T11:21:30.211Z,28.28
2018-12-06T11:27:25.158Z,37.74
2018-12-06T11:33:20.200Z,25.98
2018-12-06T11:39:15.173Z,21.04
2018-12-06T11:45:10.167Z,19.34
2018-12-06T11:51:05.194Z,19.97
2018-12-06T11:57:00.177Z,17.61
2018-12-06T12:02:55.200Z,18.1
2018-12-06T12:08:50.196Z,18.55
2018-12-06T12:14:45.221Z,20.06
2018-12-06T12:20:40.278Z,15.85
2018-12-06T12:26:35.287Z,16.32
2018-12-06T12:32:30.223Z,14.39
2018-12-06T12:38:25.264Z,14.93
2018-12-06T12:44:20.253Z,13.3
2018-12-06T12:50:15.243Z,12.61
2018-12-06T12:56:10.295Z,14.83
2018-12-06T13:02:05.301Z,13.93
2018-12-06T13:08:00.316Z,14.95
2018-12-06T13:13:55.369Z,24.12
2018-12-06T13:19:50.295Z,18.75
2018-12-06T13:25:45.348Z,19.06
2018-12-06T13:31:40.385Z,21.07
2018-12-06T13:37:35.327Z,20.77
2018-12-06T13:43:30.296Z,20.86
2018-12-06T13:49:25.380Z,19.48
2018-12-06T13:55:20.340Z,18.65
2018-12-06T14:01:15.517Z,18.83
2018-12-06T14:07:10.234Z,17.87
2018-12-06T14:13:05.237Z,18.19
2018-12-06T14:19:00.260Z,17.74
2018-12-06T14:24:55.273Z,17.13
2018-12-06T14:30:50.251Z,19.43
2018-12-06T14:36:45.323Z,18.18
2018-12-06T14:42:40.287Z,23.49
2018-12-06T14:48:35.268Z,24.65
2018-12-06T14:54:30.286Z,28.34
2018-12-06T15:00:25.266Z,20.35
2018-12-06T15:06:20.273Z,21
2018-12-06T15:12:15.294Z,18.93
2018-12-06T15:18:10.284Z,13.58
2018-12-06T15:24:05.293Z,13.1
2018-12-06T15:30:00.310Z,21.29
2018-12-06T15:35:55.311Z,25.49
2018-12-06T15:41:50.307Z,11.84
2018-12-06T15:47:45.312Z,5.74
2018-12-06T15:53:40.350Z,10.51
2018-12-06T15:59:35.332Z,6.32
2018-12-06T16:05:30.393Z,6.21
2018-12-06T16:11:25.308Z,8.57
2018-12-06T16:17:20.309Z,9.42
2018-12-06T16:23:15.330Z,7.46
2018-12-06T16:29:10.331Z,6.14
2018-12-06T16:35:05.339Z,7.94
2018-12-06T16:41:00.328Z,4.98
2018-12-06T16:46:55.338Z,7.6
2018-12-06T16:52:50.337Z,10.21
2018-12-06T16:58:45.350Z,6.35
2018-12-06T17:04:40.364Z,16.29
2018-12-06T17:10:35.341Z,8.96
2018-12-06T17:16:30.348Z,8.55
2018-12-06T17:22:25.383Z,14.01
2018-12-06T17:28:20.343Z,28.55
2018-12-06T17:34:15.360Z,21.09
2018-12-06T17:40:10.359Z,14.69
2018-12-06T17:46:05.467Z,16.09
2018-12-06T17:52:00.368Z,15.94
2018-12-06T17:57:55.368Z,20.67
2018-12-06T18:03:50.402Z,18.86
2018-12-06T18:09:45.392Z,20.31
2018-12-06T18:15:40.413Z,18.26
2018-12-06T18:21:35.392Z,23.42
2018-12-06T18:27:30.408Z,16.24
2018-12-06T18:33:25.378Z,19.68
2018-12-06T18:39:20.423Z,22.51
2018-12-06T18:45:15.378Z,20.95
2018-12-06T18:51:10.427Z,27.43
2018-12-06T18:57:05.467Z,22.65
2018-12-06T19:03:00.468Z,29.83
2018-12-06T19:08:55.391Z,20.24
2018-12-06T19:14:50.420Z,12.57
2018-12-06T19:20:45.412Z,13.88
2018-12-06T19:26:40.469Z,14.93
2018-12-06T19:32:35.439Z,17.01
2018-12-06T19:38:30.449Z,18.16
2018-12-06T19:44:25.427Z,19.3
2018-12-06T19:50:20.416Z,17.39
2018-12-06T19:56:15.420Z,15.41
2018-12-06T20:02:10.416Z,15.74
2018-12-06T20:08:05.475Z,16.72
2018-12-06T20:14:00.453Z,16.43
2018-12-06T20:19:55.429Z,15.87
2018-12-06T20:25:50.445Z,17.96
2018-12-06T20:31:45.546Z,17.36
2018-12-06T20:37:40.465Z,20.84
2018-12-06T20:43:35.480Z,15.47
2018-12-06T20:49:30.438Z,14.66
2018-12-06T20:55:25.459Z,12.59
2018-12-06T21:01:20.506Z,12.09
2018-12-06T21:07:15.458Z,8.25
2018-12-06T21:13:10.524Z,8.5
2018-12-06T21:19:05.486Z,8.22
2018-12-06T21:25:00.499Z,6.67
2018-12-06T21:30:55.476Z,10.53
2018-12-06T21:36:50.490Z,11.02
2018-12-06T21:42:45.503Z,9.35
2018-12-06T21:48:40.506Z,17.37
2018-12-06T21:54:35.530Z,16.15
2018-12-06T22:00:30.513Z,17.04
2018-12-06T22:06:25.507Z,13.74
2018-12-06T22:12:20.530Z,14.22
2018-12-06T22:18:15.519Z,10.48
2018-12-06T22:24:10.497Z,10.38
2018-12-06T22:30:05.539Z,11.73
2018-12-06T22:36:00.560Z,10.55
2018-12-06T22:41:55.549Z,9.57
2018-12-06T22:47:50.576Z,8.16
2018-12-06T22:53:45.527Z,6.23
2018-12-06T22:59:40.563Z,10.68
2018-12-06T23:05:35.509Z,10.58
2018-12-06T23:11:30.559Z,9.37
2018-12-06T23:17:25.545Z,8.1
2018-12-06T23:23:20.570Z,7.86
2018-12-06T23:29:15.551Z,8.15
2018-12-06T23:35:10.562Z,6.2
2018-12-06T23:41:05.553Z,6.57
2018-12-06T23:47:00.537Z,6.3
2018-12-06T23:52:55.578Z,6.37
2018-12-06T23:58:50.581Z,7.61
